MUVR

Juan Gualberto Gomez International Airport

Code ICAO MUVR
Code IATA VRA
Nom Juan Gualberto Gomez International Airport
Emplacement Varadero, Matanzas, CU
Élévation 210 pieds / 64 mètres
Latitude 23.03440094
Longitude -81.43530273
METAR MUVR 012150Z 03015KT 9000 TS SCT018CB 31/26 Q1017
Informations extras Afficher cartes et CFS
Afficher NOTAMS
Piste Longueur Largeur Surface Élévation
06 11490 ft 148 ft ASP 210 ft
24 11490 ft 148 ft ASP 210 ft